Etusivu
METAR-TAF:

METAR-TAF

Lentoasemat :

Valladolid, Espanja

Leveyspiiri: 41-43N, Pituuspiiri: 004-51W, korkeus merenpinnasta: 849 m

Tämänhetkinen sää

Tämä raportti tehtiin 29 minuuttia sitten, kello 23.00 UTC
Tuuli 5 kn lännestä
Lämpötila 12°C
Kosteus 76%
Ilmanpaine 1019 hPa
Näkyvyys 10 km tai enemmän
ei pilviä alle 1500 m:ssä eikä cumulonimbus-pilviä

METAR: LEVD 252300Z AUTO 28005KT CAVOK 12/08 Q1019

Aika: 01:29 (23:29 UTC)

Sääennuste

Tämä raportti tehtiin 3 tuntia ja 29 minuuttia sitten, kello 20.00 UTC
Ennuste voimassa 25. päivästä klo 21 UTC - 26. päivään klo 21 UTC
Tuuli 6 kn lännestä
Näkyvyys 10 km tai enemmän
ei pilviä alle 1500 m:ssä eikä cumulonimbus-pilviä
Todennäköisyys 30% :
Ajoittain
26. päivästä klo 03 UTC - 26. päivään klo 09 UTC
Näkyvyys: 3000 m
Hajanaisia pilviä 1000 ft:n korkeudessa
utua,

TAF: LEVD 252000Z 2521/2621 26006KT CAVOK TX24/2616Z TN11/2605Z PROB30 TEMPO 2603/2609 3000 BR SCT010

Säähavainnot ja -ennusteet yli 4000 lentoasemalta (METAR- ja TAF-raportit).

Käytössä olevat sääasemat on merkitty karttaan keltaisilla ja punaisilla pisteillä.

Aseta hiiri pisteen päälle nähdäksesi sääaseman nimen.

Klikkaa sitten nähdäksesi säähavainnot ja -ennusteet.

Kartan vaihtaminen: klikkaa mustalla rastilla varustettuja vihreitä pisteitä, niin voit zoomata sisään; viivalla varustettua vihreää pistettä, niin voit zoomata ulos tai vihreitä nuolia, niin pääset viereisille kartoille.


METAR-TAF: